Time;durP1;ratioP1;P1;durP2;ratioP2;P2;SDS_P1;SDS_P2;PMS_P1;PMS_P2;Temp;Humidity;BMP_temperature;BMP_pressure;BME280_temperature;BME280_humidity;BME280_pressure;Samples;Min_cycle;Max_cycle;Signal;HPM_P1;HPM_P2
2022/06/05 00:01:26;;;;;;;4.03;2.95;;;;;22.20;101680.00;;;;5059347;28;20187;-78
2022/06/05 00:04:00;;;;;;;4.90;3.70;;;;;22.20;101673.00;;;;5052976;28;20273;-78
2022/06/05 00:06:37;;;;;;;3.97;2.92;;;;;22.20;101674.00;;;;5069422;28;20198;-78
2022/06/05 00:09:11;;;;;;;5.07;3.35;;;;;22.20;101667.00;;;;5061363;28;20223;-77
2022/06/05 00:11:47;;;;;;;8.65;3.50;;;;;22.10;101674.00;;;;5060993;28;20195;-77
2022/06/05 00:14:14;;;;;;;5.07;3.53;;;;;22.20;101671.00;;;;5063290;28;20225;-78
2022/06/05 00:16:43;;;;;;;4.10;3.10;;;;;22.10;101667.00;;;;5068735;28;20282;-77
2022/06/05 00:19:11;;;;;;;4.70;3.35;;;;;22.10;101658.00;;;;5071126;28;20201;-77
2022/06/05 00:21:38;;;;;;;4.22;3.17;;;;;22.10;101653.00;;;;5067640;28;20205;-78
2022/06/05 00:24:06;;;;;;;4.43;3.60;;;;;22.10;101657.00;;;;5069870;28;20187;-77
2022/06/05 00:26:44;;;;;;;4.20;3.30;;;;;22.00;101651.00;;;;5066717;28;20207;-78
2022/06/05 00:29:20;;;;;;;4.03;3.22;;;;;22.00;101648.00;;;;5070058;28;20692;-77
2022/06/05 00:31:56;;;;;;;5.63;3.58;;;;;21.90;101648.00;;;;5066441;28;20198;-77
2022/06/05 00:34:24;;;;;;;6.07;3.50;;;;;21.90;101636.00;;;;5056066;28;20222;-78
2022/06/05 00:37:02;;;;;;;4.90;3.53;;;;;21.80;101638.00;;;;5055282;28;20199;-78
2022/06/05 00:39:36;;;;;;;4.55;3.03;;;;;21.80;101631.00;;;;5061260;28;20206;-77
2022/06/05 00:42:07;;;;;;;4.45;3.53;;;;;21.80;101636.00;;;;5059847;28;20223;-77
2022/06/05 00:44:38;;;;;;;5.63;3.53;;;;;21.80;101632.00;;;;5068005;28;20664;-77
2022/06/05 00:47:08;;;;;;;4.97;3.28;;;;;21.80;101641.00;;;;5069804;28;20194;-78
2022/06/05 00:49:39;;;;;;;4.63;2.95;;;;;21.80;101645.00;;;;5065964;28;20214;-78
2022/06/05 00:52:10;;;;;;;3.88;3.55;;;;;21.70;101644.00;;;;5054977;28;20203;-77
2022/06/05 00:54:38;;;;;;;9.07;3.03;;;;;21.70;101645.00;;;;5069829;28;20305;-76
2022/06/05 00:57:09;;;;;;;5.60;3.15;;;;;21.70;101645.00;;;;5068706;28;20203;-77
2022/06/05 00:59:38;;;;;;;4.45;3.42;;;;;21.70;101638.00;;;;5065433;28;20262;-77
2022/06/05 01:02:08;;;;;;;4.65;3.55;;;;;21.70;101628.00;;;;5052714;28;20202;-78
2022/06/05 01:04:38;;;;;;;5.75;3.67;;;;;21.70;101640.00;;;;5065412;28;20199;-76
2022/06/05 01:07:05;;;;;;;5.80;3.78;;;;;21.70;101636.00;;;;5068833;28;20209;-77
2022/06/05 01:09:33;;;;;;;4.93;3.33;;;;;21.70;101639.00;;;;5060574;28;20214;-77
2022/06/05 01:12:11;;;;;;;4.72;3.40;;;;;21.60;101632.00;;;;5063247;28;21037;-77
2022/06/05 01:14:51;;;;;;;4.43;3.40;;;;;21.60;101630.00;;;;5069510;28;20234;-76
2022/06/05 01:17:32;;;;;;;8.00;3.28;;;;;21.50;101619.00;;;;5067986;28;20285;-76
2022/06/05 01:20:08;;;;;;;3.80;3.47;;;;;21.60;101615.00;;;;5063016;28;20195;-76
2022/06/05 01:23:04;;;;;;;4.75;3.85;;;;;21.50;101605.00;;;;5064124;28;20779;-77
2022/06/05 01:25:53;;;;;;;5.93;3.42;;;;;21.40;101614.00;;;;5054380;28;20199;-77
2022/06/05 01:28:24;;;;;;;5.63;3.63;;;;;21.50;101607.00;;;;5061443;28;20207;-76
2022/06/05 01:30:57;;;;;;;6.47;3.53;;;;;21.50;101588.00;;;;5067818;28;20199;-76
2022/06/05 01:33:26;;;;;;;5.18;3.53;;;;;21.50;101598.00;;;;5053203;28;20195;-76
2022/06/05 01:36:03;;;;;;;5.40;3.28;;;;;21.40;101594.00;;;;5063481;28;20230;-77
2022/06/05 01:38:39;;;;;;;5.80;2.95;;;;;21.40;101599.00;;;;5063456;28;20205;-77
2022/06/05 01:41:14;;;;;;;4.28;3.67;;;;;21.40;101612.00;;;;5053183;28;20211;-77
2022/06/05 01:43:47;;;;;;;4.18;3.10;;;;;21.40;101605.00;;;;5057915;28;20230;-77
2022/06/05 01:46:20;;;;;;;6.80;4.47;;;;;21.40;101601.00;;;;5064624;28;20203;-77
2022/06/05 01:48:52;;;;;;;4.97;3.17;;;;;21.40;101607.00;;;;5060406;28;20704;-77
2022/06/05 01:51:26;;;;;;;4.55;3.53;;;;;21.40;101603.00;;;;5067750;28;20195;-77
2022/06/05 01:53:56;;;;;;;6.95;4.47;;;;;21.40;101606.00;;;;5067802;28;20207;-77
2022/06/05 01:56:30;;;;;;;5.10;3.40;;;;;21.40;101605.00;;;;5067443;28;20281;-76
2022/06/05 01:59:05;;;;;;;4.97;3.67;;;;;21.40;101597.00;;;;5055190;28;20199;-77
2022/06/05 02:01:37;;;;;;;6.15;4.10;;;;;21.40;101605.00;;;;5053050;28;20560;-78
2022/06/05 02:04:12;;;;;;;7.28;3.83;;;;;21.30;101599.00;;;;5067614;28;20202;-77
2022/06/05 02:06:43;;;;;;;5.55;4.00;;;;;21.40;101599.00;;;;5056058;28;20210;-77
2022/06/05 02:09:15;;;;;;;5.00;3.53;;;;;21.40;101589.00;;;;5054020;28;20216;-78
2022/06/05 02:11:44;;;;;;;4.50;3.42;;;;;21.40;101584.00;;;;5065218;28;20195;-78
2022/06/05 02:14:13;;;;;;;3.92;3.53;;;;;21.40;101570.00;;;;5063099;28;20195;-78
2022/06/05 02:16:42;;;;;;;5.90;3.80;;;;;21.30;101579.00;;;;5067714;28;20229;-78
2022/06/05 02:19:13;;;;;;;4.63;3.80;;;;;21.40;101579.00;;;;5066707;28;20402;-79
2022/06/05 02:21:41;;;;;;;8.50;4.03;;;;;21.40;101581.00;;;;5067599;28;20198;-78
2022/06/05 02:24:11;;;;;;;5.38;3.80;;;;;21.30;101579.00;;;;5068504;28;20210;-78
2022/06/05 02:26:39;;;;;;;5.88;4.07;;;;;21.30;101581.00;;;;5062395;28;20214;-78
2022/06/05 02:29:12;;;;;;;5.53;4.00;;;;;21.30;101570.00;;;;5067228;28;20198;-78
2022/06/05 02:31:52;;;;;;;7.30;3.72;;;;;21.20;101568.00;;;;5068218;28;20207;-78
2022/06/05 02:34:30;;;;;;;5.25;3.88;;;;;21.20;101547.00;;;;5068379;28;20198;-78
2022/06/05 02:37:04;;;;;;;4.00;3.50;;;;;21.30;101542.00;;;;5065781;28;20226;-78
2022/06/05 02:39:39;;;;;;;5.95;4.13;;;;;21.20;101544.00;;;;5047764;28;20200;-78
2022/06/05 02:42:15;;;;;;;6.57;4.28;;;;;21.20;101556.00;;;;5048380;28;20231;-78
2022/06/05 02:44:54;;;;;;;6.18;4.10;;;;;21.20;101557.00;;;;5068339;28;20205;-77
2022/06/05 02:47:32;;;;;;;4.43;3.40;;;;;21.20;101540.00;;;;5058061;28;21020;-78
2022/06/05 02:50:08;;;;;;;5.13;4.03;;;;;21.20;101514.00;;;;5073537;28;20209;-77
2022/06/05 02:52:36;;;;;;;6.90;3.88;;;;;21.30;101504.00;;;;5072101;28;20560;-79
2022/06/05 02:55:07;;;;;;;5.35;3.78;;;;;21.20;101514.00;;;;5071238;28;20218;-77
2022/06/05 02:57:35;;;;;;;5.90;4.28;;;;;21.20;101523.00;;;;5069492;28;20199;-77
2022/06/05 03:00:08;;;;;;;5.13;3.45;;;;;21.20;101534.00;;;;5070561;28;20214;-78
2022/06/05 03:05:20;;;;;;;5.85;4.05;;;;;21.20;101516.00;;;;5071431;28;20344;-78
2022/06/05 03:07:49;;;;;;;6.85;4.35;;;;;21.20;101500.00;;;;5070959;28;20202;-77
2022/06/05 03:10:17;;;;;;;6.00;4.15;;;;;21.10;101493.00;;;;5072165;28;20362;-78
2022/06/05 03:12:45;;;;;;;5.43;4.18;;;;;21.10;101501.00;;;;5055128;28;20199;-78
2022/06/05 03:15:15;;;;;;;6.40;3.95;;;;;21.10;101512.00;;;;5052769;28;20280;-77
2022/06/05 03:17:42;;;;;;;4.55;4.15;;;;;21.10;101510.00;;;;5070058;28;20203;-78
2022/06/05 03:20:11;;;;;;;5.80;4.03;;;;;21.10;101504.00;;;;5072266;28;20260;-78
2022/06/05 03:22:38;;;;;;;5.75;4.70;;;;;21.10;101494.00;;;;5071424;28;20210;-78
2022/06/05 03:25:07;;;;;;;9.15;4.35;;;;;21.10;101487.00;;;;5071391;28;20191;-78
2022/06/05 03:27:34;;;;;;;7.25;4.68;;;;;21.10;101475.00;;;;5065116;28;20304;-77
2022/06/05 03:30:02;;;;;;;4.15;3.75;;;;;21.10;101463.00;;;;5064727;28;20237;-78
2022/06/05 03:32:31;;;;;;;6.45;4.38;;;;;21.10;101460.00;;;;5067512;28;20198;-77
2022/06/05 03:34:58;;;;;;;4.90;3.88;;;;;21.10;101450.00;;;;5081153;28;20202;-77
2022/06/05 03:37:26;;;;;;;5.75;4.05;;;;;21.10;101447.00;;;;5071298;28;20198;-77
2022/06/05 03:39:53;;;;;;;6.72;4.40;;;;;21.10;101443.00;;;;5068493;28;20187;-78
2022/06/05 03:42:20;;;;;;;7.57;4.03;;;;;21.00;101446.00;;;;5052952;28;20227;-78
2022/06/05 03:44:48;;;;;;;5.45;4.40;;;;;21.00;101454.00;;;;5064000;28;20244;-77
2022/06/05 03:47:15;;;;;;;6.20;4.35;;;;;21.00;101442.00;;;;5065955;28;20946;-78
2022/06/05 03:49:44;;;;;;;5.85;4.45;;;;;20.90;101446.00;;;;5051384;28;20192;-77
2022/06/05 03:52:12;;;;;;;5.95;4.10;;;;;20.90;101450.00;;;;5051321;28;20233;-78
2022/06/05 03:54:40;;;;;;;8.98;4.88;;;;;20.90;101458.00;;;;5064149;28;20673;-78
2022/06/05 03:57:08;;;;;;;6.25;4.32;;;;;20.90;101452.00;;;;5069912;28;20223;-77
2022/06/05 03:59:37;;;;;;;6.50;4.65;;;;;20.90;101450.00;;;;5070965;28;20199;-78
2022/06/05 04:02:05;;;;;;;5.60;4.50;;;;;20.80;101456.00;;;;5059387;28;20195;-77
2022/06/05 04:04:33;;;;;;;6.65;4.25;;;;;20.80;101455.00;;;;5060047;28;20200;-78
2022/06/05 04:07:01;;;;;;;5.53;4.80;;;;;20.80;101458.00;;;;5067450;28;20191;-78
2022/06/05 04:09:29;;;;;;;5.90;4.50;;;;;20.80;101465.00;;;;5090945;28;20218;-77
2022/06/05 04:11:57;;;;;;;6.85;4.85;;;;;20.80;101465.00;;;;5073624;28;20203;-78
2022/06/05 04:14:24;;;;;;;6.93;4.68;;;;;20.80;101465.00;;;;5070314;28;20202;-78
2022/06/05 04:16:51;;;;;;;6.07;4.50;;;;;20.80;101467.00;;;;5068986;28;20288;-78
2022/06/05 04:19:19;;;;;;;8.20;5.07;;;;;20.80;101455.00;;;;5050848;28;20187;-77
2022/06/05 04:21:47;;;;;;;6.28;4.82;;;;;20.80;101459.00;;;;5050744;28;20192;-77
2022/06/05 04:24:16;;;;;;;6.03;5.22;;;;;20.80;101463.00;;;;5052423;28;20203;-78
2022/06/05 04:26:45;;;;;;;6.82;4.93;;;;;20.80;101459.00;;;;5068906;28;20191;-77
2022/06/05 04:29:13;;;;;;;10.55;6.07;;;;;20.80;101453.00;;;;5053094;28;20207;-78
2022/06/05 04:31:44;;;;;;;6.65;5.30;;;;;20.70;101445.00;;;;5066250;28;20204;-77
2022/06/05 04:34:15;;;;;;;6.35;5.28;;;;;20.70;101454.00;;;;5062299;28;20561;-77
2022/06/05 04:36:43;;;;;;;6.68;5.13;;;;;20.70;101445.00;;;;5070130;28;20281;-77
2022/06/05 04:39:11;;;;;;;5.85;4.70;;;;;20.70;101439.00;;;;5069643;28;20665;-78
2022/06/05 04:41:41;;;;;;;5.75;5.05;;;;;20.70;101432.00;;;;5063034;28;20196;-78
2022/06/05 04:44:13;;;;;;;6.05;4.72;;;;;20.60;101419.00;;;;5064341;28;20214;-78
2022/06/05 04:46:40;;;;;;;7.47;4.65;;;;;20.70;101419.00;;;;5056106;28;20233;-77
2022/06/05 04:49:07;;;;;;;7.82;5.60;;;;;20.70;101413.00;;;;5054932;28;20222;-78
2022/06/05 04:51:36;;;;;;;7.43;5.63;;;;;20.60;101411.00;;;;5049824;28;20573;-75
2022/06/05 04:54:05;;;;;;;5.80;5.25;;;;;20.60;101403.00;;;;5050481;28;20265;-78
2022/06/05 04:56:33;;;;;;;12.88;5.70;;;;;20.60;101412.00;;;;5050760;28;20227;-78
2022/06/05 04:59:03;;;;;;;11.02;6.10;;;;;20.60;101408.00;;;;5054447;28;20202;-77
2022/06/05 05:01:32;;;;;;;6.72;5.13;;;;;20.60;101398.00;;;;5057590;28;20268;-78
2022/06/05 05:04:01;;;;;;;6.65;5.07;;;;;20.60;101390.00;;;;5058894;28;20895;-78
2022/06/05 05:06:30;;;;;;;7.22;5.80;;;;;20.60;101394.00;;;;5069767;28;20195;-78
2022/06/05 05:08:58;;;;;;;6.20;4.90;;;;;20.60;101393.00;;;;5068611;28;20218;-78
2022/06/05 05:11:26;;;;;;;6.97;5.05;;;;;20.60;101391.00;;;;5069066;28;20195;-78
2022/06/05 05:13:55;;;;;;;6.78;5.15;;;;;20.60;101382.00;;;;5059590;28;20199;-78
2022/06/05 05:16:24;;;;;;;6.22;5.18;;;;;20.60;101384.00;;;;5058137;28;20238;-78
2022/06/05 05:18:52;;;;;;;6.18;5.05;;;;;20.60;101390.00;;;;5061161;28;20209;-78
2022/06/05 05:21:21;;;;;;;5.80;4.78;;;;;20.60;101396.00;;;;5068209;28;20206;-77
2022/06/05 05:23:50;;;;;;;5.22;4.72;;;;;20.60;101403.00;;;;5068850;28;20199;-78
2022/06/05 05:26:19;;;;;;;7.50;5.75;;;;;20.60;101407.00;;;;5069355;28;20206;-77
2022/06/05 05:28:48;;;;;;;8.38;5.30;;;;;20.70;101416.00;;;;5061393;28;20586;-77
2022/06/05 05:31:18;;;;;;;5.53;4.78;;;;;20.70;101430.00;;;;5050339;28;20196;-77
2022/06/05 05:33:49;;;;;;;7.10;4.93;;;;;20.70;101421.00;;;;5068052;28;20198;-77
2022/06/05 05:36:18;;;;;;;6.72;4.93;;;;;20.80;101416.00;;;;5058389;28;20218;-77
2022/06/05 05:44:13;;;;;;;7.63;5.55;;;;;20.80;101410.00;;;;5063139;28;20230;-79
2022/06/05 05:46:41;;;;;;;8.25;5.68;;;;;20.80;101415.00;;;;5065032;28;20602;-79
2022/06/05 05:49:10;;;;;;;7.05;5.55;;;;;20.80;101423.00;;;;5064413;28;20257;-79
2022/06/05 05:51:38;;;;;;;8.38;5.80;;;;;20.90;101418.00;;;;5063157;28;20206;-79
2022/06/05 05:54:06;;;;;;;7.50;5.38;;;;;20.90;101433.00;;;;5055960;28;20199;-79
2022/06/05 05:56:34;;;;;;;5.55;4.57;;;;;20.90;101426.00;;;;5058043;28;20225;-77
2022/06/05 05:59:01;;;;;;;8.23;5.40;;;;;21.00;101431.00;;;;5064321;28;20345;-78
2022/06/05 06:01:31;;;;;;;6.68;5.03;;;;;21.00;101421.00;;;;5060449;28;20211;-76
2022/06/05 06:03:58;;;;;;;7.85;5.38;;;;;21.00;101430.00;;;;5064660;28;20668;-77
2022/06/05 06:06:29;;;;;;;6.68;5.03;;;;;21.00;101428.00;;;;5063531;28;20210;-77
2022/06/05 06:09:00;;;;;;;6.45;4.85;;;;;21.00;101426.00;;;;5058409;28;20677;-79
2022/06/05 06:11:28;;;;;;;7.65;5.47;;;;;21.10;101424.00;;;;5058714;28;20614;-78
2022/06/05 06:13:55;;;;;;;9.10;5.13;;;;;21.10;101427.00;;;;5058121;28;20210;-78
2022/06/05 06:16:23;;;;;;;6.15;5.45;;;;;21.10;101429.00;;;;5064776;28;20222;-78
2022/06/05 06:18:50;;;;;;;6.18;4.65;;;;;21.20;101431.00;;;;5061302;28;20202;-78
2022/06/05 06:21:17;;;;;;;6.88;5.35;;;;;21.20;101427.00;;;;5060780;28;20202;-78
2022/06/05 06:23:46;;;;;;;9.10;5.57;;;;;21.20;101422.00;;;;5055743;28;20194;-78
2022/06/05 06:26:14;;;;;;;6.72;4.97;;;;;21.20;101423.00;;;;5065818;28;20213;-78
2022/06/05 06:28:41;;;;;;;9.18;6.15;;;;;21.30;101426.00;;;;5057234;28;20194;-79
2022/06/05 06:31:10;;;;;;;6.25;5.35;;;;;21.30;101421.00;;;;5048992;28;20208;-79
2022/06/05 06:33:39;;;;;;;6.22;4.80;;;;;21.30;101416.00;;;;5057374;28;20569;-78
2022/06/05 06:36:11;;;;;;;7.72;5.30;;;;;21.40;101420.00;;;;5060575;28;20222;-78
2022/06/05 06:38:40;;;;;;;7.40;5.40;;;;;21.40;101427.00;;;;5057088;28;20199;-77
2022/06/05 06:41:11;;;;;;;7.65;5.28;;;;;21.40;101424.00;;;;5065406;28;20283;-77
2022/06/05 06:43:43;;;;;;;5.72;4.80;;;;;21.40;101417.00;;;;5061301;28;20744;-78
2022/06/05 06:46:11;;;;;;;7.28;5.13;;;;;21.50;101415.00;;;;5066546;28;20244;-78
2022/06/05 06:48:39;;;;;;;7.28;5.57;;;;;21.50;101411.00;;;;5061872;28;20666;-78
2022/06/05 06:51:07;;;;;;;7.88;5.07;;;;;21.50;101405.00;;;;5059211;28;20311;-75
2022/06/05 06:53:39;;;;;;;5.55;4.80;;;;;21.50;101395.00;;;;5065008;28;20798;-76
2022/06/05 06:56:13;;;;;;;6.13;4.50;;;;;21.50;101391.00;;;;5063176;28;20706;-78
2022/06/05 06:58:41;;;;;;;6.75;5.47;;;;;21.60;101385.00;;;;5060945;28;20203;-78
2022/06/05 07:01:09;;;;;;;7.03;5.80;;;;;21.60;101386.00;;;;5057550;28;20199;-78
2022/06/05 07:03:43;;;;;;;7.28;5.93;;;;;21.60;101379.00;;;;5057558;28;20202;-77
2022/06/05 07:06:13;;;;;;;6.18;5.15;;;;;21.70;101366.00;;;;5058010;28;20207;-79
2022/06/05 07:08:41;;;;;;;8.32;5.40;;;;;21.70;101365.00;;;;5048634;28;20191;-78
2022/06/05 07:11:11;;;;;;;6.88;5.43;;;;;21.70;101359.00;;;;5061726;28;20226;-78
2022/06/05 07:13:41;;;;;;;7.90;5.28;;;;;21.80;101359.00;;;;5060497;28;20203;-78
2022/06/05 07:16:10;;;;;;;5.93;5.32;;;;;21.80;101349.00;;;;5063926;28;20202;-78
2022/06/05 07:18:41;;;;;;;6.10;5.18;;;;;21.90;101350.00;;;;5060025;28;20219;-78
2022/06/05 07:21:10;;;;;;;5.78;5.13;;;;;21.90;101342.00;;;;5059290;28;20211;-78
2022/06/05 07:23:38;;;;;;;7.13;5.13;;;;;22.00;101334.00;;;;5061724;28;20195;-78
2022/06/05 07:26:08;;;;;;;9.52;5.20;;;;;22.10;101317.00;;;;5063243;28;20214;-77
2022/06/05 07:28:37;;;;;;;8.25;5.63;;;;;22.10;101323.00;;;;5056434;28;20200;-77
2022/06/05 07:31:06;;;;;;;7.55;5.68;;;;;22.20;101311.00;;;;5058754;28;20662;-77
2022/06/05 07:33:34;;;;;;;6.38;5.03;;;;;22.20;101315.00;;;;5063585;28;20202;-77
2022/06/05 07:36:03;;;;;;;8.02;5.65;;;;;22.30;101313.00;;;;5063839;28;20206;-77
2022/06/05 07:38:32;;;;;;;7.50;5.30;;;;;22.40;101311.00;;;;5064974;28;20201;-78
2022/06/05 07:41:00;;;;;;;5.80;5.13;;;;;22.40;101307.00;;;;5059930;28;20221;-80
2022/06/05 07:43:27;;;;;;;6.60;4.95;;;;;22.50;101318.00;;;;5063396;28;20238;-77
2022/06/05 07:45:57;;;;;;;5.70;4.82;;;;;22.50;101307.00;;;;5064417;28;20215;-79
2022/06/05 07:48:24;;;;;;;6.97;5.78;;;;;22.60;101301.00;;;;5067236;28;20199;-78
2022/06/05 07:56:34;;;;;;;5.50;4.63;;;;;22.80;101279.00;;;;5068376;28;20314;-79
2022/06/05 07:59:01;;;;;;;5.65;4.90;;;;;23.00;101276.00;;;;5069650;28;20203;-77
2022/06/05 08:01:30;;;;;;;7.63;5.53;;;;;23.00;101272.00;;;;5067814;28;20218;-78
2022/06/05 08:03:58;;;;;;;7.80;4.95;;;;;23.20;101271.00;;;;5070081;28;20581;-77
2022/06/05 08:06:25;;;;;;;6.25;5.50;;;;;23.30;101262.00;;;;5070433;28;20290;-77
2022/06/05 08:08:52;;;;;;;9.88;5.80;;;;;23.40;101241.00;;;;5069334;28;20301;-79
2022/06/05 08:11:20;;;;;;;5.13;4.63;;;;;23.50;101241.00;;;;5061871;28;20674;-78
2022/06/05 08:13:47;;;;;;;7.03;5.53;;;;;23.60;101233.00;;;;5068571;28;20198;-77
2022/06/05 08:16:15;;;;;;;5.20;4.70;;;;;23.70;101226.00;;;;5067181;28;20206;-78
2022/06/05 08:18:44;;;;;;;6.43;5.20;;;;;23.90;101226.00;;;;5062596;28;20198;-78
2022/06/05 08:21:11;;;;;;;7.75;5.18;;;;;24.00;101226.00;;;;5058996;28;20202;-78
2022/06/05 08:23:39;;;;;;;6.03;5.10;;;;;24.10;101221.00;;;;5066686;28;20195;-78
2022/06/05 08:26:06;;;;;;;5.50;4.88;;;;;24.30;101220.00;;;;5068948;28;20198;-77
2022/06/05 08:28:34;;;;;;;6.13;5.40;;;;;24.40;101206.00;;;;5072299;28;20271;-76
2022/06/05 08:31:01;;;;;;;8.27;5.47;;;;;24.60;101204.00;;;;5066306;28;20284;-76
2022/06/05 08:33:28;;;;;;;5.68;5.18;;;;;24.70;101200.00;;;;5067365;28;20195;-77
2022/06/05 08:35:57;;;;;;;5.57;5.07;;;;;24.80;101187.00;;;;5066889;28;20206;-78
2022/06/05 08:41:28;;;;;;;5.93;4.85;;;;;25.00;101196.00;;;;5068230;28;20198;-77
2022/06/05 08:44:04;;;;;;;5.00;4.55;;;;;25.10;101197.00;;;;5064043;28;20223;-79
2022/06/05 08:46:37;;;;;;;5.35;4.70;;;;;25.30;101200.00;;;;5053055;28;20207;-78
2022/06/05 08:49:11;;;;;;;5.35;4.65;;;;;25.50;101210.00;;;;5058503;28;20610;-79
2022/06/05 08:51:52;;;;;;;6.28;5.68;;;;;25.60;101213.00;;;;5052074;28;20274;-79
2022/06/05 08:54:24;;;;;;;5.70;4.68;;;;;25.80;101212.00;;;;5051997;28;20207;-79
2022/06/05 08:56:59;;;;;;;5.43;4.65;;;;;25.80;101199.00;;;;5064027;28;20214;-79
2022/06/05 08:59:41;;;;;;;5.82;4.63;;;;;25.90;101199.00;;;;5063007;28;20673;-78
2022/06/05 09:02:18;;;;;;;6.45;5.15;;;;;26.00;101207.00;;;;5062243;28;20272;-79
2022/06/05 09:04:52;;;;;;;5.18;4.68;;;;;26.20;101208.00;;;;5068516;28;20249;-77
2022/06/05 09:07:24;;;;;;;6.63;4.88;;;;;26.20;101195.00;;;;5068178;28;20198;-78
2022/06/05 09:09:56;;;;;;;4.97;4.47;;;;;26.30;101197.00;;;;5062309;28;20298;-79
2022/06/05 09:12:30;;;;;;;5.65;5.13;;;;;26.40;101201.00;;;;5068009;28;20214;-78
2022/06/05 09:15:07;;;;;;;4.53;4.13;;;;;26.40;101198.00;;;;5056264;28;20275;-80
2022/06/05 09:17:36;;;;;;;4.95;4.18;;;;;26.50;101206.00;;;;5050804;28;20214;-81
2022/06/05 09:20:03;;;;;;;4.85;4.35;;;;;26.60;101211.00;;;;5057422;28;20691;-80
2022/06/05 09:22:41;;;;;;;4.82;4.40;;;;;26.60;101204.00;;;;5063659;28;20203;-80
2022/06/05 09:25:39;;;;;;;5.43;4.93;;;;;26.60;101201.00;;;;5068468;28;20692;-79
2022/06/05 09:28:20;;;;;;;5.20;4.18;;;;;26.70;101206.00;;;;5053416;28;20199;-80
2022/06/05 09:30:55;;;;;;;5.07;4.57;;;;;26.80;101214.00;;;;5060714;28;20187;-79
2022/06/05 09:33:27;;;;;;;4.80;4.07;;;;;26.80;101216.00;;;;5048844;28;20195;-79
2022/06/05 09:35:57;;;;;;;4.38;3.97;;;;;26.90;101216.00;;;;5057743;28;20206;-79
2022/06/05 09:38:29;;;;;;;5.43;4.30;;;;;27.00;101208.00;;;;5062906;28;20692;-79
2022/06/05 09:41:25;;;;;;;6.10;4.47;;;;;26.90;101211.00;;;;5056361;28;20206;-80
2022/06/05 09:44:02;;;;;;;4.45;4.05;;;;;27.10;101205.00;;;;5055073;28;20223;-80
2022/06/05 09:46:52;;;;;;;4.88;4.40;;;;;27.10;101203.00;;;;5058435;28;20203;-83
2022/06/05 09:49:24;;;;;;;4.35;3.95;;;;;27.20;101201.00;;;;5064202;28;20581;-82
2022/06/05 09:51:51;;;;;;;5.32;4.82;;;;;27.30;101194.00;;;;5062792;28;20203;-82
2022/06/05 09:54:27;;;;;;;5.18;4.43;;;;;27.40;101199.00;;;;5052695;28;20669;-85
2022/06/05 10:00:03;;;;;;;4.60;3.92;;;;;27.60;101181.00;;;;5060915;28;20215;-83
2022/06/05 10:02:31;;;;;;;7.13;4.75;;;;;27.70;101192.00;;;;5064195;28;20198;-83
2022/06/05 10:04:59;;;;;;;6.45;3.92;;;;;27.70;101188.00;;;;5067487;28;20688;-85
2022/06/05 10:07:31;;;;;;;5.85;3.90;;;;;27.80;101188.00;;;;5068059;28;20195;-84
2022/06/05 10:10:05;;;;;;;3.35;3.05;;;;;27.80;101192.00;;;;5058183;28;20688;-83
2022/06/05 10:12:39;;;;;;;4.28;3.97;;;;;27.90;101190.00;;;;5048948;28;20209;-83
2022/06/05 10:15:20;;;;;;;4.28;3.85;;;;;27.90;101189.00;;;;5068295;28;20190;-85
2022/06/05 10:17:50;;;;;;;4.40;4.00;;;;;28.00;101181.00;;;;5057750;28;20231;-85
2022/06/05 10:20:46;;;;;;;6.63;5.05;;;;;28.00;101189.00;;;;5062703;28;20202;-84
2022/06/05 10:23:36;;;;;;;5.50;4.53;;;;;28.00;101176.00;;;;5067734;28;20221;-82
2022/06/05 10:26:25;;;;;;;4.63;4.13;;;;;28.00;101176.00;;;;5063766;28;20211;-81
2022/06/05 10:29:07;;;;;;;4.75;4.32;;;;;28.10;101177.00;;;;5063580;28;20658;-81
2022/06/05 10:31:36;;;;;;;6.15;4.30;;;;;28.10;101166.00;;;;5049964;28;20195;-81
2022/06/05 10:34:17;;;;;;;7.22;4.45;;;;;28.10;101164.00;;;;5061321;28;20202;-79
2022/06/05 10:37:05;;;;;;;3.78;3.47;;;;;28.00;101161.00;;;;5050277;28;20637;-82
2022/06/05 10:39:41;;;;;;;4.43;4.03;;;;;28.10;101160.00;;;;5060482;28;20213;-84
2022/06/05 10:42:26;;;;;;;9.23;4.32;;;;;28.10;101167.00;;;;5050123;28;20219;-84
2022/06/05 10:45:14;;;;;;;4.40;4.00;;;;;28.10;101167.00;;;;5058314;28;20680;-83
2022/06/05 10:47:52;;;;;;;4.47;4.07;;;;;28.10;101161.00;;;;5066168;28;20187;-82
2022/06/05 10:50:23;;;;;;;4.72;4.32;;;;;28.20;101160.00;;;;5059779;28;20492;-83
2022/06/05 10:52:57;;;;;;;5.18;4.68;;;;;28.10;101151.00;;;;5048956;28;20206;-83
2022/06/05 10:55:35;;;;;;;5.00;4.55;;;;;28.10;101154.00;;;;5052750;28;20832;-83
2022/06/05 10:58:14;;;;;;;4.57;4.13;;;;;28.10;101153.00;;;;5053085;28;20615;-84
2022/06/05 11:00:57;;;;;;;4.63;4.20;;;;;28.00;101157.00;;;;5053518;28;20198;-83
2022/06/05 11:03:34;;;;;;;4.15;3.85;;;;;28.10;101154.00;;;;5065465;28;20251;-83
2022/06/05 11:06:30;;;;;;;4.13;3.83;;;;;28.00;101159.00;;;;5047610;28;20191;-83
2022/06/05 11:09:08;;;;;;;4.72;4.32;;;;;28.10;101165.00;;;;5066493;28;20823;-82
2022/06/05 11:14:32;;;;;;;4.15;3.83;;;;;28.00;101161.00;;;;5062719;28;20449;-81
2022/06/05 11:17:08;;;;;;;4.22;3.83;;;;;28.00;101155.00;;;;5070940;28;20203;-79
2022/06/05 11:19:44;;;;;;;3.92;3.55;;;;;28.00;101143.00;;;;5068471;28;20686;-79
2022/06/05 11:22:14;;;;;;;4.43;4.03;;;;;28.00;101147.00;;;;5064180;28;20202;-79
2022/06/05 11:24:47;;;;;;;3.97;3.67;;;;;28.00;101143.00;;;;5056757;28;20554;-79
2022/06/05 11:27:23;;;;;;;5.47;4.97;;;;;28.10;101137.00;;;;5068176;28;20252;-79
2022/06/05 11:29:59;;;;;;;5.18;4.68;;;;;28.00;101137.00;;;;5052259;28;20198;-79
2022/06/05 11:32:44;;;;;;;6.25;4.40;;;;;28.00;101131.00;;;;5066465;28;20739;-79
2022/06/05 11:35:24;;;;;;;3.85;3.55;;;;;28.00;101130.00;;;;5062390;28;20241;-79
2022/06/05 11:37:59;;;;;;;3.95;3.65;;;;;28.00;101133.00;;;;5068817;28;20221;-77
2022/06/05 11:40:41;;;;;;;4.45;4.05;;;;;28.00;101129.00;;;;5059330;28;20248;-77
2022/06/05 11:43:28;;;;;;;4.10;3.75;;;;;28.00;101128.00;;;;5055086;28;20231;-76
2022/06/05 11:46:04;;;;;;;4.30;3.88;;;;;28.00;101123.00;;;;5058406;28;20202;-77
2022/06/05 11:48:38;;;;;;;4.90;4.50;;;;;28.00;101125.00;;;;5069725;28;20459;-77
2022/06/05 11:51:13;;;;;;;4.90;4.50;;;;;28.00;101120.00;;;;5069598;28;20199;-77
2022/06/05 11:53:50;;;;;;;4.32;3.92;;;;;28.00;101120.00;;;;5067239;28;20202;-77
2022/06/05 11:56:40;;;;;;;6.63;4.60;;;;;27.90;101121.00;;;;5056252;28;20195;-76
2022/06/05 11:59:19;;;;;;;4.63;4.18;;;;;27.90;101116.00;;;;5051065;28;20635;-77
2022/06/05 12:01:54;;;;;;;4.50;4.10;;;;;27.90;101107.00;;;;5056003;28;20203;-76
2022/06/05 12:04:32;;;;;;;3.92;3.63;;;;;27.90;101113.00;;;;5052717;28;20653;-77
2022/06/05 12:07:03;;;;;;;5.43;4.38;;;;;27.90;101107.00;;;;5060829;28;20195;-76
2022/06/05 12:09:35;;;;;;;5.35;4.85;;;;;27.80;101116.00;;;;5066579;28;20219;-77
2022/06/05 12:12:08;;;;;;;4.82;4.32;;;;;27.80;101115.00;;;;5068218;28;20663;-76
2022/06/05 12:14:43;;;;;;;4.65;4.25;;;;;27.80;101109.00;;;;5053070;28;20796;-76
2022/06/05 12:17:17;;;;;;;4.40;4.10;;;;;27.70;101099.00;;;;5052768;28;20199;-79
2022/06/05 12:19:53;;;;;;;4.97;4.57;;;;;27.70;101101.00;;;;5060762;28;20219;-78
2022/06/05 12:22:27;;;;;;;5.28;3.83;;;;;27.60;101091.00;;;;5069744;28;20691;-79
2022/06/05 12:25:00;;;;;;;4.70;4.30;;;;;27.60;101099.00;;;;5069070;28;20550;-79
2022/06/05 12:27:44;;;;;;;4.72;4.32;;;;;27.50;101091.00;;;;5069946;28;20593;-78
2022/06/05 12:30:21;;;;;;;5.40;4.75;;;;;27.50;101088.00;;;;5066936;28;20203;-78
2022/06/05 12:32:55;;;;;;;4.65;4.25;;;;;27.50;101087.00;;;;5064463;28;20289;-76
2022/06/05 12:35:28;;;;;;;5.35;4.20;;;;;27.50;101079.00;;;;5070175;28;20558;-78
2022/06/05 12:38:06;;;;;;;5.43;4.93;;;;;27.50;101082.00;;;;5060608;28;20219;-77
2022/06/05 12:40:37;;;;;;;6.68;4.53;;;;;27.50;101071.00;;;;5070843;28;20298;-78
2022/06/05 12:43:11;;;;;;;5.07;4.57;;;;;27.40;101075.00;;;;5065631;28;20226;-76
2022/06/05 12:45:41;;;;;;;4.70;4.35;;;;;27.40;101080.00;;;;5067504;28;20194;-77
2022/06/05 12:48:17;;;;;;;6.43;5.00;;;;;27.40;101075.00;;;;5058192;28;20575;-77
2022/06/05 12:50:54;;;;;;;4.82;4.43;;;;;27.30;101073.00;;;;5053850;28;20190;-77
2022/06/05 12:53:31;;;;;;;5.75;5.20;;;;;27.30;101070.00;;;;5049986;28;20207;-77
2022/06/05 12:56:07;;;;;;;4.72;4.32;;;;;27.30;101066.00;;;;5053003;28;20315;-76